sensor_id;sensor_type;location;lat;lon;timestamp;pressure;altitude;pressure_sealevel;temperature;humidity
52185;BME280;38160;52.876;18.778;2022-09-09T00:02:23;100547.96;;;13.29;68.71
52185;BME280;38160;52.876;18.778;2022-09-09T00:05:17;100539.14;;;13.27;68.63
52185;BME280;38160;52.876;18.778;2022-09-09T00:07:55;100539.70;;;13.23;69.08
52185;BME280;38160;52.876;18.778;2022-09-09T00:10:33;100531.57;;;13.23;69.24
52185;BME280;38160;52.876;18.778;2022-09-09T00:13:22;100537.16;;;13.21;69.86
52185;BME280;38160;52.876;18.778;2022-09-09T00:16:20;100526.33;;;13.21;69.76
52185;BME280;38160;52.876;18.778;2022-09-09T00:21:40;100532.64;;;13.17;69.93
52185;BME280;38160;52.876;18.778;2022-09-09T00:24:26;100535.84;;;13.17;70.62
52185;BME280;38160;52.876;18.778;2022-09-09T00:27:21;100531.47;;;13.16;70.08
52185;BME280;38160;52.876;18.778;2022-09-09T00:30:29;100530.80;;;13.14;71.02
52185;BME280;38160;52.876;18.778;2022-09-09T00:33:09;100531.36;;;13.09;71.10
52185;BME280;38160;52.876;18.778;2022-09-09T00:35:56;100537.99;;;13.07;71.23
52185;BME280;38160;52.876;18.778;2022-09-09T00:38:33;100535.31;;;13.03;71.30
52185;BME280;38160;52.876;18.778;2022-09-09T00:47:53;100525.18;;;12.77;72.57
52185;BME280;38160;52.876;18.778;2022-09-09T00:50:53;100532.96;;;12.80;72.68
52185;BME280;38160;52.876;18.778;2022-09-09T01:00:22;100520.55;;;12.67;73.39
52185;BME280;38160;52.876;18.778;2022-09-09T01:06:47;100512.91;;;12.67;73.92
52185;BME280;38160;52.876;18.778;2022-09-09T01:09:27;100523.05;;;12.69;74.47
52185;BME280;38160;52.876;18.778;2022-09-09T01:12:14;100527.11;;;12.69;74.32
52185;BME280;38160;52.876;18.778;2022-09-09T01:15:03;100522.05;;;12.70;74.46
52185;BME280;38160;52.876;18.778;2022-09-09T01:27:15;100533.94;;;12.65;75.37
52185;BME280;38160;52.876;18.778;2022-09-09T01:29:48;100529.01;;;12.64;75.44
52185;BME280;38160;52.876;18.778;2022-09-09T01:35:37;100534.57;;;12.67;75.47
52185;BME280;38160;52.876;18.778;2022-09-09T01:38:20;100533.22;;;12.67;75.67
52185;BME280;38160;52.876;18.778;2022-09-09T01:40:54;100543.21;;;12.66;76.32
52185;BME280;38160;52.876;18.778;2022-09-09T01:43:29;100545.77;;;12.64;76.27
52185;BME280;38160;52.876;18.778;2022-09-09T01:46:01;100551.16;;;12.68;76.54
52185;BME280;38160;52.876;18.778;2022-09-09T01:48:33;100541.98;;;12.73;76.61
52185;BME280;38160;52.876;18.778;2022-09-09T01:51:08;100532.98;;;12.76;76.71
52185;BME280;38160;52.876;18.778;2022-09-09T01:53:42;100527.58;;;12.76;76.34
52185;BME280;38160;52.876;18.778;2022-09-09T01:59:23;100530.80;;;12.76;76.50
52185;BME280;38160;52.876;18.778;2022-09-09T02:02:09;100533.51;;;12.76;77.16
52185;BME280;38160;52.876;18.778;2022-09-09T02:04:51;100537.57;;;12.76;77.27
52185;BME280;38160;52.876;18.778;2022-09-09T02:07:38;100536.91;;;12.74;77.10
52185;BME280;38160;52.876;18.778;2022-09-09T02:13:03;100541.52;;;12.69;77.33
52185;BME280;38160;52.876;18.778;2022-09-09T02:18:56;100537.91;;;12.73;77.79
52185;BME280;38160;52.876;18.778;2022-09-09T02:21:31;100536.24;;;12.72;77.86
52185;BME280;38160;52.876;18.778;2022-09-09T02:24:06;100537.59;;;12.72;78.07
52185;BME280;38160;52.876;18.778;2022-09-09T02:26:45;100533.68;;;12.74;78.29
52185;BME280;38160;52.876;18.778;2022-09-09T02:29:26;100527.75;;;12.75;78.12
52185;BME280;38160;52.876;18.778;2022-09-09T02:32:02;100527.43;;;12.74;78.22
52185;BME280;38160;52.876;18.778;2022-09-09T02:34:40;100523.86;;;12.73;78.52
52185;BME280;38160;52.876;18.778;2022-09-09T02:37:22;100526.39;;;12.75;78.70
52185;BME280;38160;52.876;18.778;2022-09-09T02:39:57;100525.18;;;12.77;78.57
52185;BME280;38160;52.876;18.778;2022-09-09T02:42:29;100519.63;;;12.75;79.75
52185;BME280;38160;52.876;18.778;2022-09-09T02:45:00;100519.51;;;12.68;78.91
52185;BME280;38160;52.876;18.778;2022-09-09T02:47:47;100519.86;;;12.69;79.12
52185;BME280;38160;52.876;18.778;2022-09-09T02:50:27;100522.56;;;12.69;79.27
52185;BME280;38160;52.876;18.778;2022-09-09T02:53:16;100520.20;;;12.66;79.93
52185;BME280;38160;52.876;18.778;2022-09-09T02:55:55;100526.99;;;12.62;79.67
52185;BME280;38160;52.876;18.778;2022-09-09T02:58:33;100528.69;;;12.63;79.90
52185;BME280;38160;52.876;18.778;2022-09-09T03:01:07;100531.55;;;12.66;80.05
52185;BME280;38160;52.876;18.778;2022-09-09T03:03:39;100536.27;;;12.68;80.05
52185;BME280;38160;52.876;18.778;2022-09-09T03:06:14;100533.05;;;12.68;80.04
52185;BME280;38160;52.876;18.778;2022-09-09T03:08:46;100538.60;;;12.71;80.26
52185;BME280;38160;52.876;18.778;2022-09-09T03:11:18;100527.48;;;12.66;79.96
52185;BME280;38160;52.876;18.778;2022-09-09T03:13:50;100525.64;;;12.62;80.45
52185;BME280;38160;52.876;18.778;2022-09-09T03:16:23;100527.17;;;12.65;80.47
52185;BME280;38160;52.876;18.778;2022-09-09T03:18:56;100530.56;;;12.63;80.45
52185;BME280;38160;52.876;18.778;2022-09-09T03:21:28;100531.57;;;12.62;80.94
52185;BME280;38160;52.876;18.778;2022-09-09T03:23:59;100525.84;;;12.61;81.05
52185;BME280;38160;52.876;18.778;2022-09-09T03:26:33;100536.96;;;12.66;81.07
52185;BME280;38160;52.876;18.778;2022-09-09T03:29:05;100535.23;;;12.69;81.39
52185;BME280;38160;52.876;18.778;2022-09-09T03:31:37;100530.86;;;12.68;81.33
52185;BME280;38160;52.876;18.778;2022-09-09T03:34:10;100527.45;;;12.70;81.49
52185;BME280;38160;52.876;18.778;2022-09-09T03:36:42;100531.14;;;12.73;81.37
52185;BME280;38160;52.876;18.778;2022-09-09T03:39:14;100534.69;;;12.73;81.65
52185;BME280;38160;52.876;18.778;2022-09-09T03:41:46;100532.64;;;12.75;81.74
52185;BME280;38160;52.876;18.778;2022-09-09T03:44:19;100532.81;;;12.78;81.75
52185;BME280;38160;52.876;18.778;2022-09-09T03:46:51;100530.95;;;12.78;81.66
52185;BME280;38160;52.876;18.778;2022-09-09T03:49:23;100536.50;;;12.81;81.81
52185;BME280;38160;52.876;18.778;2022-09-09T03:51:56;100539.04;;;12.83;82.15
52185;BME280;38160;52.876;18.778;2022-09-09T03:54:28;100539.70;;;12.85;82.16
52185;BME280;38160;52.876;18.778;2022-09-09T03:57:00;100543.94;;;12.83;82.32
52185;BME280;38160;52.876;18.778;2022-09-09T03:59:32;100540.85;;;12.86;82.19
52185;BME280;38160;52.876;18.778;2022-09-09T04:02:05;100540.16;;;12.88;82.28
52185;BME280;38160;52.876;18.778;2022-09-09T04:04:37;100540.83;;;12.90;82.47
52185;BME280;38160;52.876;18.778;2022-09-09T04:07:09;100536.94;;;12.89;82.47
52185;BME280;38160;52.876;18.778;2022-09-09T04:09:44;100539.16;;;12.89;82.63
52185;BME280;38160;52.876;18.778;2022-09-09T04:12:16;100537.59;;;12.91;82.88
52185;BME280;38160;52.876;18.778;2022-09-09T04:14:48;100541.98;;;12.96;82.93
52185;BME280;38160;52.876;18.778;2022-09-09T04:17:20;100540.77;;;12.98;82.84
52185;BME280;38160;52.876;18.778;2022-09-09T04:19:53;100535.34;;;12.98;82.70
52185;BME280;38160;52.876;18.778;2022-09-09T04:22:26;100544.72;;;12.92;82.95
52185;BME280;38160;52.876;18.778;2022-09-09T04:24:58;100539.47;;;12.90;83.32
52185;BME280;38160;52.876;18.778;2022-09-09T04:27:30;100541.84;;;12.93;83.28
52185;BME280;38160;52.876;18.778;2022-09-09T04:30:02;100540.97;;;12.93;83.04
52185;BME280;38160;52.876;18.778;2022-09-09T04:32:35;100538.95;;;12.91;83.35
52185;BME280;38160;52.876;18.778;2022-09-09T04:35:08;100537.77;;;12.93;83.56
52185;BME280;38160;52.876;18.778;2022-09-09T04:40:35;100543.33;;;12.96;83.59
52185;BME280;38160;52.876;18.778;2022-09-09T04:43:07;100534.30;;;12.99;83.94
52185;BME280;38160;52.876;18.778;2022-09-09T04:45:39;100539.38;;;13.03;83.95
52185;BME280;38160;52.876;18.778;2022-09-09T04:48:12;100542.37;;;13.08;84.07
52185;BME280;38160;52.876;18.778;2022-09-09T04:50:44;100547.93;;;13.10;84.07
52185;BME280;38160;52.876;18.778;2022-09-09T04:53:16;100551.30;;;13.12;83.97
52185;BME280;38160;52.876;18.778;2022-09-09T04:55:48;100558.39;;;13.17;84.19
52185;BME280;38160;52.876;18.778;2022-09-09T04:58:20;100559.53;;;13.19;84.22
52185;BME280;38160;52.876;18.778;2022-09-09T05:00:53;100560.54;;;13.22;84.19
52185;BME280;38160;52.876;18.778;2022-09-09T05:03:26;100558.81;;;13.25;84.17
52185;BME280;38160;52.876;18.778;2022-09-09T05:06:05;100553.91;;;13.25;84.26
52185;BME280;38160;52.876;18.778;2022-09-09T05:08:41;100552.55;;;13.29;84.43
52185;BME280;38160;52.876;18.778;2022-09-09T05:11:25;100558.45;;;13.28;84.36
52185;BME280;38160;52.876;18.778;2022-09-09T05:14:08;100552.69;;;13.31;84.46
52185;BME280;38160;52.876;18.778;2022-09-09T05:16:44;100554.56;;;13.31;84.69
52185;BME280;38160;52.876;18.778;2022-09-09T05:19:16;100550.81;;;13.32;84.54
52185;BME280;38160;52.876;18.778;2022-09-09T05:21:51;100559.74;;;13.36;84.83
52185;BME280;38160;52.876;18.778;2022-09-09T05:24:25;100563.25;;;13.41;84.87
52185;BME280;38160;52.876;18.778;2022-09-09T05:26:59;100560.50;;;13.45;84.88
52185;BME280;38160;52.876;18.778;2022-09-09T05:29:32;100558.84;;;13.44;84.98
52185;BME280;38160;52.876;18.778;2022-09-09T05:32:05;100559.98;;;13.46;84.89
52185;BME280;38160;52.876;18.778;2022-09-09T05:34:40;100564.02;;;13.50;85.06
52185;BME280;38160;52.876;18.778;2022-09-09T05:37:12;100556.02;;;13.52;85.09
52185;BME280;38160;52.876;18.778;2022-09-09T05:39:44;100562.44;;;13.55;85.24
52185;BME280;38160;52.876;18.778;2022-09-09T05:42:19;100563.94;;;13.58;85.08
52185;BME280;38160;52.876;18.778;2022-09-09T05:44:51;100563.55;;;13.61;85.25
52185;BME280;38160;52.876;18.778;2022-09-09T05:53:03;100568.23;;;13.67;85.34
52185;BME280;38160;52.876;18.778;2022-09-09T06:02:08;100578.25;;;13.67;85.44
52185;BME280;38160;52.876;18.778;2022-09-09T06:04:41;100573.34;;;13.66;85.72
52185;BME280;38160;52.876;18.778;2022-09-09T06:07:13;100565.17;;;13.70;85.92
52185;BME280;38160;52.876;18.778;2022-09-09T06:09:45;100563.73;;;13.74;85.87
52185;BME280;38160;52.876;18.778;2022-09-09T06:12:18;100569.60;;;13.82;85.88
52185;BME280;38160;52.876;18.778;2022-09-09T06:14:51;100575.95;;;13.89;85.57
52185;BME280;38160;52.876;18.778;2022-09-09T06:17:24;100576.99;;;13.88;85.62
52185;BME280;38160;52.876;18.778;2022-09-09T06:20:01;100576.16;;;13.88;85.72
52185;BME280;38160;52.876;18.778;2022-09-09T06:22:34;100576.61;;;13.91;86.02
52185;BME280;38160;52.876;18.778;2022-09-09T06:25:08;100576.73;;;13.94;86.03
52185;BME280;38160;52.876;18.778;2022-09-09T06:27:40;100580.59;;;13.99;86.13
52185;BME280;38160;52.876;18.778;2022-09-09T06:30:13;100576.42;;;14.08;86.24
52185;BME280;38160;52.876;18.778;2022-09-09T06:32:46;100574.45;;;14.16;86.18
52185;BME280;38160;52.876;18.778;2022-09-09T06:35:18;100579.30;;;14.21;86.07
52185;BME280;38160;52.876;18.778;2022-09-09T06:37:53;100582.15;;;14.23;85.95
52185;BME280;38160;52.876;18.778;2022-09-09T06:40:33;100580.61;;;14.25;86.14
52185;BME280;38160;52.876;18.778;2022-09-09T06:43:25;100580.74;;;14.28;86.04
52185;BME280;38160;52.876;18.778;2022-09-09T06:46:00;100586.83;;;14.30;86.23
52185;BME280;38160;52.876;18.778;2022-09-09T06:48:33;100591.08;;;14.28;86.02
52185;BME280;38160;52.876;18.778;2022-09-09T06:51:17;100594.31;;;14.28;86.75
52185;BME280;38160;52.876;18.778;2022-09-09T06:53:51;100591.12;;;14.24;86.18
52185;BME280;38160;52.876;18.778;2022-09-09T06:56:33;100593.80;;;14.28;86.42
52185;BME280;38160;52.876;18.778;2022-09-09T06:59:17;100596.64;;;14.31;86.16
52185;BME280;38160;52.876;18.778;2022-09-09T07:01:49;100595.88;;;14.37;86.58
52185;BME280;38160;52.876;18.778;2022-09-09T07:04:23;100590.98;;;14.36;86.13
52185;BME280;38160;52.876;18.778;2022-09-09T07:06:54;100589.28;;;14.35;85.97
52185;BME280;38160;52.876;18.778;2022-09-09T07:09:28;100595.88;;;14.37;86.52
52185;BME280;38160;52.876;18.778;2022-09-09T07:12:00;100602.17;;;14.48;86.77
52185;BME280;38160;52.876;18.778;2022-09-09T07:14:34;100606.20;;;14.52;86.42
52185;BME280;38160;52.876;18.778;2022-09-09T07:17:08;100605.54;;;14.50;86.63
52185;BME280;38160;52.876;18.778;2022-09-09T07:19:41;100610.31;;;14.48;86.74
52185;BME280;38160;52.876;18.778;2022-09-09T07:22:14;100610.14;;;14.50;86.54
52185;BME280;38160;52.876;18.778;2022-09-09T07:24:46;100609.48;;;14.48;86.85
52185;BME280;38160;52.876;18.778;2022-09-09T07:27:19;100610.97;;;14.50;86.29
52185;BME280;38160;52.876;18.778;2022-09-09T07:29:52;100613.56;;;14.48;86.44
52185;BME280;38160;52.876;18.778;2022-09-09T07:32:25;100620.95;;;14.54;86.67
52185;BME280;38160;52.876;18.778;2022-09-09T07:34:57;100619.41;;;14.55;86.86
52185;BME280;38160;52.876;18.778;2022-09-09T07:37:29;100622.98;;;14.67;87.08
52185;BME280;38160;52.876;18.778;2022-09-09T07:40:02;100623.52;;;14.77;86.92
52185;BME280;38160;52.876;18.778;2022-09-09T07:42:37;100618.44;;;14.78;86.64
52185;BME280;38160;52.876;18.778;2022-09-09T08:50:22;100671.64;;;15.91;86.60
52185;BME280;38160;52.876;18.778;2022-09-09T16:44:38;100714.03;;;18.18;75.99
52185;BME280;38160;52.876;18.778;2022-09-09T16:56:06;100704.92;;;17.74;76.63
52185;BME280;38160;52.876;18.778;2022-09-09T17:56:02;100744.30;;;15.79;81.85
52185;BME280;38160;52.876;18.778;2022-09-09T17:58:36;100746.38;;;15.77;82.27
52185;BME280;38160;52.876;18.778;2022-09-09T18:07:26;100758.03;;;15.71;82.58
52185;BME280;38160;52.876;18.778;2022-09-09T18:13:16;100762.14;;;15.67;83.07
52185;BME280;38160;52.876;18.778;2022-09-09T18:15:48;100759.11;;;15.66;82.78
52185;BME280;38160;52.876;18.778;2022-09-09T18:18:28;100761.83;;;15.66;83.22
52185;BME280;38160;52.876;18.778;2022-09-09T18:21:20;100762.66;;;15.66;83.55
52185;BME280;38160;52.876;18.778;2022-09-09T18:24:02;100761.12;;;15.68;83.66
52185;BME280;38160;52.876;18.778;2022-09-09T18:26:35;100761.48;;;15.65;83.90
52185;BME280;38160;52.876;18.778;2022-09-09T18:35:00;100756.05;;;15.65;84.67
52185;BME280;38160;52.876;18.778;2022-09-09T18:37:32;100765.91;;;15.66;84.71
52185;BME280;38160;52.876;18.778;2022-09-09T18:42:56;100769.59;;;15.69;84.86
52185;BME280;38160;52.876;18.778;2022-09-09T18:45:27;100771.78;;;15.69;84.93
52185;BME280;38160;52.876;18.778;2022-09-09T18:48:01;100771.66;;;15.67;84.81
52185;BME280;38160;52.876;18.778;2022-09-09T18:50:33;100770.30;;;15.67;85.13
52185;BME280;38160;52.876;18.778;2022-09-09T18:53:05;100768.94;;;15.67;85.19
52185;BME280;38160;52.876;18.778;2022-09-09T18:55:40;100768.41;;;15.67;85.38
52185;BME280;38160;52.876;18.778;2022-09-09T18:58:12;100769.47;;;15.66;85.33
52185;BME280;38160;52.876;18.778;2022-09-09T19:00:45;100778.34;;;15.64;85.53
52185;BME280;38160;52.876;18.778;2022-09-09T19:03:17;100776.45;;;15.65;86.23
52185;BME280;38160;52.876;18.778;2022-09-09T19:05:48;100781.89;;;15.65;85.96
52185;BME280;38160;52.876;18.778;2022-09-09T19:08:36;100773.08;;;15.63;85.50
52185;BME280;38160;52.876;18.778;2022-09-09T19:11:12;100774.50;;;15.59;86.11
52185;BME280;38160;52.876;18.778;2022-09-09T19:13:54;100775.03;;;15.58;85.96
52185;BME280;38160;52.876;18.778;2022-09-09T19:16:32;100772.19;;;15.56;86.16
52185;BME280;38160;52.876;18.778;2022-09-09T19:19:08;100780.69;;;15.57;86.38
52185;BME280;38160;52.876;18.778;2022-09-09T19:21:42;100775.55;;;15.58;86.51
52185;BME280;38160;52.876;18.778;2022-09-09T19:24:17;100768.10;;;15.56;86.54
52185;BME280;38160;52.876;18.778;2022-09-09T19:26:54;100766.74;;;15.56;86.79
52185;BME280;38160;52.876;18.778;2022-09-09T19:29:30;100763.50;;;15.56;86.99
52185;BME280;38160;52.876;18.778;2022-09-09T19:32:04;100762.35;;;15.55;86.75
52185;BME280;38160;52.876;18.778;2022-09-09T19:34:36;100763.77;;;15.51;86.94
52185;BME280;38160;52.876;18.778;2022-09-09T19:37:08;100758.92;;;15.46;87.06
52185;BME280;38160;52.876;18.778;2022-09-09T19:39:40;100764.14;;;15.47;86.88
52185;BME280;38160;52.876;18.778;2022-09-09T19:42:12;100764.66;;;15.47;87.23
52185;BME280;38160;52.876;18.778;2022-09-09T19:44:44;100760.28;;;15.46;87.29
52185;BME280;38160;52.876;18.778;2022-09-09T19:47:17;100775.08;;;15.43;87.79
52185;BME280;38160;52.876;18.778;2022-09-09T19:49:49;100767.44;;;15.43;87.87
52185;BME280;38160;52.876;18.778;2022-09-09T19:52:27;100767.26;;;15.44;87.84
52185;BME280;38160;52.876;18.778;2022-09-09T19:54:58;100771.34;;;15.44;87.84
52185;BME280;38160;52.876;18.778;2022-09-09T19:57:45;100766.55;;;15.46;87.68
52185;BME280;38160;52.876;18.778;2022-09-09T20:00:16;100765.43;;;15.41;88.51
52185;BME280;38160;52.876;18.778;2022-09-09T20:02:49;100763.70;;;15.33;88.08
52185;BME280;38160;52.876;18.778;2022-09-09T20:05:21;100766.28;;;15.31;88.00
52185;BME280;38160;52.876;18.778;2022-09-09T20:07:53;100771.38;;;15.30;88.35
52185;BME280;38160;52.876;18.778;2022-09-09T20:10:31;100775.98;;;15.29;88.62
52185;BME280;38160;52.876;18.778;2022-09-09T20:16:27;100785.03;;;15.25;88.43
52185;BME280;38160;52.876;18.778;2022-09-09T20:19:03;100783.88;;;15.24;88.31
52185;BME280;38160;52.876;18.778;2022-09-09T20:21:41;100782.70;;;15.22;88.71
52185;BME280;38160;52.876;18.778;2022-09-09T20:24:18;100782.70;;;15.22;88.81
52185;BME280;38160;52.876;18.778;2022-09-09T20:32:50;100781.40;;;15.18;88.97
52185;BME280;38160;52.876;18.778;2022-09-09T20:35:28;100788.02;;;15.20;89.26
52185;BME280;38160;52.876;18.778;2022-09-09T20:38:01;100784.46;;;15.19;89.30
52185;BME280;38160;52.876;18.778;2022-09-09T20:40:38;100792.41;;;15.21;89.40
52185;BME280;38160;52.876;18.778;2022-09-09T20:45:45;100792.27;;;15.18;89.69
52185;BME280;38160;52.876;18.778;2022-09-09T20:48:16;100791.75;;;15.19;89.46
52185;BME280;38160;52.876;18.778;2022-09-09T20:50:48;100791.05;;;15.21;89.57
52185;BME280;38160;52.876;18.778;2022-09-09T20:53:20;100784.06;;;15.22;89.81
52185;BME280;38160;52.876;18.778;2022-09-09T20:55:57;100792.22;;;15.22;89.66
52185;BME280;38160;52.876;18.778;2022-09-09T20:58:33;100791.56;;;15.20;89.89
52185;BME280;38160;52.876;18.778;2022-09-09T21:01:05;100788.45;;;15.23;90.01
52185;BME280;38160;52.876;18.778;2022-09-09T21:03:37;100789.11;;;15.25;89.79
52185;BME280;38160;52.876;18.778;2022-09-09T21:06:09;100800.20;;;15.24;89.83
52185;BME280;38160;52.876;18.778;2022-09-09T21:08:42;100802.13;;;15.19;90.08
52185;BME280;38160;52.876;18.778;2022-09-09T21:11:14;100804.38;;;15.16;90.12
52185;BME280;38160;52.876;18.778;2022-09-09T21:13:47;100805.55;;;15.17;90.50
52185;BME280;38160;52.876;18.778;2022-09-09T21:16:21;100801.39;;;15.21;90.47
52185;BME280;38160;52.876;18.778;2022-09-09T21:18:54;100813.31;;;15.20;90.34
52185;BME280;38160;52.876;18.778;2022-09-09T21:21:26;100814.67;;;15.20;90.44
52185;BME280;38160;52.876;18.778;2022-09-09T21:23:58;100808.98;;;15.15;90.43
52185;BME280;38160;52.876;18.778;2022-09-09T21:26:30;100812.40;;;15.13;90.73
52185;BME280;38160;52.876;18.778;2022-09-09T21:29:02;100813.63;;;15.11;90.36
52185;BME280;38160;52.876;18.778;2022-09-09T21:31:33;100813.67;;;15.06;90.74
52185;BME280;38160;52.876;18.778;2022-09-09T21:34:05;100811.27;;;15.08;91.04
52185;BME280;38160;52.876;18.778;2022-09-09T21:36:38;100811.22;;;15.12;91.06
52185;BME280;38160;52.876;18.778;2022-09-09T21:39:10;100816.97;;;15.13;91.04
52185;BME280;38160;52.876;18.778;2022-09-09T21:41:42;100811.22;;;15.12;91.01
52185;BME280;38160;52.876;18.778;2022-09-09T21:44:14;100802.75;;;15.11;91.08
52185;BME280;38160;52.876;18.778;2022-09-09T21:46:46;100808.55;;;15.08;91.27
52185;BME280;38160;52.876;18.778;2022-09-09T21:49:18;100809.25;;;15.05;91.42
52185;BME280;38160;52.876;18.778;2022-09-09T21:51:50;100805.52;;;15.06;91.39
52185;BME280;38160;52.876;18.778;2022-09-09T21:54:21;100804.82;;;15.09;91.58
52185;BME280;38160;52.876;18.778;2022-09-09T21:56:53;100814.77;;;15.12;91.71
52185;BME280;38160;52.876;18.778;2022-09-09T21:59:25;100807.80;;;15.14;91.52
52185;BME280;38160;52.876;18.778;2022-09-09T22:01:58;100808.11;;;15.15;91.60
52185;BME280;38160;52.876;18.778;2022-09-09T22:04:29;100813.55;;;15.15;91.72
52185;BME280;38160;52.876;18.778;2022-09-09T22:07:01;100807.14;;;15.12;91.80
52185;BME280;38160;52.876;18.778;2022-09-09T22:09:34;100808.27;;;15.17;91.86
52185;BME280;38160;52.876;18.778;2022-09-09T22:12:06;100807.41;;;15.17;91.93
52185;BME280;38160;52.876;18.778;2022-09-09T22:14:38;100806.39;;;15.18;91.84
52185;BME280;38160;52.876;18.778;2022-09-09T22:17:10;100807.70;;;15.22;92.07
52185;BME280;38160;52.876;18.778;2022-09-09T22:19:42;100806.47;;;15.24;91.93
52185;BME280;38160;52.876;18.778;2022-09-09T22:22:14;100800.50;;;15.25;91.90
52185;BME280;38160;52.876;18.778;2022-09-09T22:24:45;100798.49;;;15.23;91.96
52185;BME280;38160;52.876;18.778;2022-09-09T22:27:17;100794.59;;;15.21;92.00
52185;BME280;38160;52.876;18.778;2022-09-09T22:29:49;100783.23;;;15.22;92.18
52185;BME280;38160;52.876;18.778;2022-09-09T22:32:21;100781.00;;;15.21;92.04
52185;BME280;38160;52.876;18.778;2022-09-09T22:34:52;100783.94;;;15.20;91.95
52185;BME280;38160;52.876;18.778;2022-09-09T22:37:24;100775.96;;;15.18;92.24
52185;BME280;38160;52.876;18.778;2022-09-09T22:39:56;100775.13;;;15.18;92.15
52185;BME280;38160;52.876;18.778;2022-09-09T22:42:27;100770.92;;;15.15;92.10
52185;BME280;38160;52.876;18.778;2022-09-09T22:45:00;100770.58;;;15.14;92.27
52185;BME280;38160;52.876;18.778;2022-09-09T22:47:32;100768.04;;;15.13;92.58
52185;BME280;38160;52.876;18.778;2022-09-09T22:50:05;100763.19;;;15.08;92.48
52185;BME280;38160;52.876;18.778;2022-09-09T22:52:37;100763.89;;;15.06;92.62
52185;BME280;38160;52.876;18.778;2022-09-09T22:55:09;100770.06;;;15.04;92.53
52185;BME280;38160;52.876;18.778;2022-09-09T22:57:41;100763.97;;;15.02;92.78
52185;BME280;38160;52.876;18.778;2022-09-09T23:00:13;100759.89;;;15.02;92.80
52185;BME280;38160;52.876;18.778;2022-09-09T23:02:45;100760.73;;;15.02;92.91
52185;BME280;38160;52.876;18.778;2022-09-09T23:05:19;100753.41;;;15.03;93.07
52185;BME280;38160;52.876;18.778;2022-09-09T23:07:53;100755.47;;;15.01;93.18
52185;BME280;38160;52.876;18.778;2022-09-09T23:10:26;100757.41;;;14.96;93.08
52185;BME280;38160;52.876;18.778;2022-09-09T23:13:00;100754.87;;;14.95;93.06
52185;BME280;38160;52.876;18.778;2022-09-09T23:15:32;100755.73;;;14.95;93.43
52185;BME280;38160;52.876;18.778;2022-09-09T23:18:03;100747.89;;;14.96;93.20
52185;BME280;38160;52.876;18.778;2022-09-09T23:20:36;100755.39;;;14.94;93.29
52185;BME280;38160;52.876;18.778;2022-09-09T23:23:08;100750.48;;;14.94;93.34
52185;BME280;38160;52.876;18.778;2022-09-09T23:25:41;100753.07;;;14.91;93.40
52185;BME280;38160;52.876;18.778;2022-09-09T23:28:13;100749.48;;;14.91;93.58
52185;BME280;38160;52.876;18.778;2022-09-09T23:30:45;100749.36;;;14.88;93.61
52185;BME280;38160;52.876;18.778;2022-09-09T23:33:17;100746.85;;;14.87;93.58
52185;BME280;38160;52.876;18.778;2022-09-09T23:35:57;100743.42;;;14.89;93.77
52185;BME280;38160;52.876;18.778;2022-09-09T23:38:29;100739.98;;;14.91;93.66
52185;BME280;38160;52.876;18.778;2022-09-09T23:41:01;100743.74;;;14.90;93.89
52185;BME280;38160;52.876;18.778;2022-09-09T23:43:33;100738.31;;;14.90;93.77
52185;BME280;38160;52.876;18.778;2022-09-09T23:46:09;100744.92;;;14.91;94.33
52185;BME280;38160;52.876;18.778;2022-09-09T23:48:43;100728.80;;;14.90;94.17
52185;BME280;38160;52.876;18.778;2022-09-09T23:51:16;100723.18;;;14.91;94.09
52185;BME280;38160;52.876;18.778;2022-09-09T23:53:53;100722.48;;;14.93;94.21
52185;BME280;38160;52.876;18.778;2022-09-09T23:56:29;100728.75;;;14.94;94.15
52185;BME280;38160;52.876;18.778;2022-09-09T23:59:04;100721.42;;;14.94;93.94
